sensor_id;sensor_type;location;lat;lon;timestamp;P1;durP1;ratioP1;P2;durP2;ratioP2
18653;SDS011;9456;47.824;16.228;2022-09-27T01:01:13;4.07;;;3.77;;
18653;SDS011;9456;47.824;16.228;2022-09-27T01:07:27;4.30;;;4.00;;
18653;SDS011;9456;47.824;16.228;2022-09-27T01:10:50;4.20;;;3.80;;
18653;SDS011;9456;47.824;16.228;2022-09-27T03:14:52;4.30;;;3.90;;
18653;SDS011;9456;47.824;16.228;2022-09-27T03:18:05;4.73;;;4.33;;
18653;SDS011;9456;47.824;16.228;2022-09-27T05:21:46;6.07;;;5.53;;
18653;SDS011;9456;47.824;16.228;2022-09-27T05:24:14;5.47;;;4.97;;
18653;SDS011;9456;47.824;16.228;2022-09-27T05:26:42;5.47;;;4.97;;
18653;SDS011;9456;47.824;16.228;2022-09-27T05:29:11;6.60;;;4.83;;
18653;SDS011;9456;47.824;16.228;2022-09-27T05:31:40;5.53;;;5.13;;
18653;SDS011;9456;47.824;16.228;2022-09-27T05:34:11;5.30;;;4.80;;
18653;SDS011;9456;47.824;16.228;2022-09-27T05:36:42;5.10;;;4.70;;
18653;SDS011;9456;47.824;16.228;2022-09-27T05:39:14;5.50;;;5.00;;
18653;SDS011;9456;47.824;16.228;2022-09-27T05:41:43;5.33;;;4.83;;
18653;SDS011;9456;47.824;16.228;2022-09-27T05:44:20;5.20;;;4.80;;
18653;SDS011;9456;47.824;16.228;2022-09-27T05:46:50;5.63;;;4.93;;
18653;SDS011;9456;47.824;16.228;2022-09-27T05:49:24;5.73;;;5.23;;
18653;SDS011;9456;47.824;16.228;2022-09-27T05:51:52;5.90;;;5.33;;
18653;SDS011;9456;47.824;16.228;2022-09-27T05:54:24;8.37;;;6.07;;
18653;SDS011;9456;47.824;16.228;2022-09-27T05:56:53;11.43;;;6.43;;
18653;SDS011;9456;47.824;16.228;2022-09-27T05:59:25;8.03;;;6.77;;
18653;SDS011;9456;47.824;16.228;2022-09-27T06:01:53;8.53;;;6.73;;
18653;SDS011;9456;47.824;16.228;2022-09-27T06:04:23;9.40;;;7.70;;
18653;SDS011;9456;47.824;16.228;2022-09-27T06:06:52;12.00;;;8.67;;
18653;SDS011;9456;47.824;16.228;2022-09-27T06:09:24;8.90;;;8.00;;
18653;SDS011;9456;47.824;16.228;2022-09-27T06:11:53;7.53;;;6.83;;
18653;SDS011;9456;47.824;16.228;2022-09-27T06:14:22;11.53;;;7.07;;
18653;SDS011;9456;47.824;16.228;2022-09-27T06:16:50;7.27;;;6.57;;
18653;SDS011;9456;47.824;16.228;2022-09-27T06:19:19;6.10;;;5.50;;
18653;SDS011;9456;47.824;16.228;2022-09-27T06:21:48;5.87;;;5.20;;
18653;SDS011;9456;47.824;16.228;2022-09-27T06:24:16;6.87;;;5.50;;
18653;SDS011;9456;47.824;16.228;2022-09-27T06:26:46;7.13;;;5.87;;
18653;SDS011;9456;47.824;16.228;2022-09-27T06:29:14;6.97;;;6.37;;
18653;SDS011;9456;47.824;16.228;2022-09-27T06:31:49;8.87;;;7.97;;
18653;SDS011;9456;47.824;16.228;2022-09-27T06:34:19;10.23;;;8.53;;
18653;SDS011;9456;47.824;16.228;2022-09-27T06:36:52;8.00;;;6.43;;
18653;SDS011;9456;47.824;16.228;2022-09-27T06:39:21;8.10;;;6.87;;
18653;SDS011;9456;47.824;16.228;2022-09-27T06:41:55;12.57;;;6.90;;
18653;SDS011;9456;47.824;16.228;2022-09-27T06:44:24;7.13;;;6.43;;
18653;SDS011;9456;47.824;16.228;2022-09-27T06:46:51;6.70;;;6.03;;
18653;SDS011;9456;47.824;16.228;2022-09-27T06:49:37;7.43;;;6.73;;
18653;SDS011;9456;47.824;16.228;2022-09-27T06:52:25;9.63;;;7.50;;
18653;SDS011;9456;47.824;16.228;2022-09-27T06:54:58;7.70;;;6.63;;
18653;SDS011;9456;47.824;16.228;2022-09-27T07:27:31;7.87;;;7.07;;
18653;SDS011;9456;47.824;16.228;2022-09-27T07:30:14;8.07;;;7.37;;
18653;SDS011;9456;47.824;16.228;2022-09-27T07:32:44;8.70;;;7.87;;
18653;SDS011;9456;47.824;16.228;2022-09-27T07:38:18;9.07;;;8.20;;
18653;SDS011;9456;47.824;16.228;2022-09-27T07:41:07;9.90;;;9.00;;
18653;SDS011;9456;47.824;16.228;2022-09-27T07:43:52;9.07;;;8.17;;
18653;SDS011;9456;47.824;16.228;2022-09-27T07:46:43;9.50;;;8.70;;
18653;SDS011;9456;47.824;16.228;2022-09-27T07:49:14;9.93;;;8.53;;
18653;SDS011;9456;47.824;16.228;2022-09-27T07:51:44;8.00;;;7.30;;
18653;SDS011;9456;47.824;16.228;2022-09-27T07:54:17;8.20;;;7.40;;
18653;SDS011;9456;47.824;16.228;2022-09-27T07:56:51;8.27;;;6.93;;
18653;SDS011;9456;47.824;16.228;2022-09-27T08:02:16;8.43;;;7.60;;
18653;SDS011;9456;47.824;16.228;2022-09-27T08:04:49;8.23;;;7.43;;
18653;SDS011;9456;47.824;16.228;2022-09-27T08:07:31;7.93;;;7.23;;
18653;SDS011;9456;47.824;16.228;2022-09-27T08:10:04;6.87;;;6.30;;
18653;SDS011;9456;47.824;16.228;2022-09-27T08:21:41;6.53;;;5.93;;
18653;SDS011;9456;47.824;16.228;2022-09-27T08:24:25;7.57;;;6.47;;
18653;SDS011;9456;47.824;16.228;2022-09-27T08:27:15;7.93;;;7.17;;
18653;SDS011;9456;47.824;16.228;2022-09-27T08:30:23;9.03;;;7.63;;
18653;SDS011;9456;47.824;16.228;2022-09-27T08:33:28;7.73;;;7.03;;
18653;SDS011;9456;47.824;16.228;2022-09-27T08:36:25;8.03;;;7.27;;
18653;SDS011;9456;47.824;16.228;2022-09-27T08:42:12;6.40;;;5.10;;
18653;SDS011;9456;47.824;16.228;2022-09-27T08:45:13;3.60;;;3.30;;
18653;SDS011;9456;47.824;16.228;2022-09-27T08:48:08;3.00;;;2.80;;
18653;SDS011;9456;47.824;16.228;2022-09-27T08:50:53;3.27;;;3.07;;
18653;SDS011;9456;47.824;16.228;2022-09-27T08:56:58;2.80;;;2.50;;
18653;SDS011;9456;47.824;16.228;2022-09-27T09:08:44;2.60;;;2.40;;
18653;SDS011;9456;47.824;16.228;2022-09-27T09:11:42;2.63;;;1.90;;
18653;SDS011;9456;47.824;16.228;2022-09-27T09:14:38;1.80;;;1.70;;
18653;SDS011;9456;47.824;16.228;2022-09-27T09:17:15;2.33;;;2.03;;
18653;SDS011;9456;47.824;16.228;2022-09-27T09:19:52;1.93;;;1.83;;
18653;SDS011;9456;47.824;16.228;2022-09-27T09:23:15;1.43;;;1.33;;
18653;SDS011;9456;47.824;16.228;2022-09-27T09:26:13;2.67;;;2.00;;
18653;SDS011;9456;47.824;16.228;2022-09-27T09:29:01;2.27;;;2.07;;
18653;SDS011;9456;47.824;16.228;2022-09-27T09:31:52;2.17;;;1.90;;
18653;SDS011;9456;47.824;16.228;2022-09-27T09:37:46;2.57;;;1.50;;
18653;SDS011;9456;47.824;16.228;2022-09-27T09:40:41;1.80;;;1.63;;
18653;SDS011;9456;47.824;16.228;2022-09-27T09:49:30;1.50;;;1.30;;
18653;SDS011;9456;47.824;16.228;2022-09-27T09:52:23;1.40;;;1.30;;
18653;SDS011;9456;47.824;16.228;2022-09-27T10:16:58;0.90;;;0.90;;
18653;SDS011;9456;47.824;16.228;2022-09-27T10:19:47;1.60;;;1.50;;
18653;SDS011;9456;47.824;16.228;2022-09-27T12:13:47;3.50;;;2.67;;
18653;SDS011;9456;47.824;16.228;2022-09-27T12:28:39;1.50;;;1.40;;
18653;SDS011;9456;47.824;16.228;2022-09-27T12:52:42;1.43;;;0.60;;
18653;SDS011;9456;47.824;16.228;2022-09-27T15:32:54;0.40;;;0.40;;
18653;SDS011;9456;47.824;16.228;2022-09-27T15:42:12;0.40;;;0.30;;
18653;SDS011;9456;47.824;16.228;2022-09-27T15:58:40;0.20;;;0.20;;
18653;SDS011;9456;47.824;16.228;2022-09-27T16:01:37;0.23;;;0.23;;
18653;SDS011;9456;47.824;16.228;2022-09-27T17:06:18;0.37;;;0.37;;
18653;SDS011;9456;47.824;16.228;2022-09-27T18:23:57;8.10;;;4.43;;
18653;SDS011;9456;47.824;16.228;2022-09-27T18:27:01;3.63;;;2.90;;
18653;SDS011;9456;47.824;16.228;2022-09-27T18:36:08;0.60;;;0.60;;
18653;SDS011;9456;47.824;16.228;2022-09-27T18:57:54;0.50;;;0.50;;
18653;SDS011;9456;47.824;16.228;2022-09-27T19:00:36;0.30;;;0.30;;
